Time;durP1;ratioP1;P1;durP2;ratioP2;P2;SDS_P1;SDS_P2;PMS_P1;PMS_P2;Temp;Humidity;BMP_temperature;BMP_pressure;BME280_temperature;BME280_humidity;BME280_pressure;Samples;Min_cycle;Max_cycle;Signal;HPM_P1;HPM_P2
2023/08/24 00:00:54;;;;;;;6.10;2.53;;;;;;;;;;4963991;28;20413;-80
2023/08/24 00:03:21;;;;;;;4.00;2.30;;;;;;;;;;4962852;28;20533;-80
2023/08/24 00:05:47;;;;;;;4.63;3.10;;;;;;;;;;4964485;28;20404;-81
2023/08/24 00:08:13;;;;;;;3.17;1.67;;;;;;;;;;4964175;28;20841;-81
2023/08/24 00:10:39;;;;;;;3.10;2.57;;;;;;;;;;4962675;28;20417;-80
2023/08/24 00:13:05;;;;;;;3.07;2.00;;;;;;;;;;4964525;28;20237;-80
2023/08/24 00:15:31;;;;;;;6.83;2.77;;;;;;;;;;4963560;28;20425;-80
2023/08/24 00:17:57;;;;;;;5.87;3.00;;;;;;;;;;4962406;28;20517;-80
2023/08/24 00:20:23;;;;;;;4.70;3.50;;;;;;;;;;4963569;28;20474;-80
2023/08/24 00:22:49;;;;;;;4.07;3.43;;;;;;;;;;4963159;28;20464;-80
2023/08/24 00:25:15;;;;;;;3.50;2.07;;;;;;;;;;4963091;28;20427;-79
2023/08/24 00:27:41;;;;;;;4.03;2.17;;;;;;;;;;4964402;28;20776;-79
2023/08/24 00:30:08;;;;;;;4.53;1.70;;;;;;;;;;4962508;28;20428;-81
2023/08/24 00:32:34;;;;;;;4.90;2.03;;;;;;;;;;4962603;28;20179;-80
2023/08/24 00:35:01;;;;;;;4.60;2.10;;;;;;;;;;4963245;28;21034;-79
2023/08/24 00:37:28;;;;;;;4.13;2.43;;;;;;;;;;4963618;28;20479;-79
2023/08/24 00:39:54;;;;;;;3.57;1.73;;;;;;;;;;4962950;28;20463;-79
2023/08/24 00:42:22;;;;;;;6.70;1.27;;;;;;;;;;4963975;28;20892;-78
2023/08/24 00:44:48;;;;;;;3.23;0.93;;;;;;;;;;4962550;28;20506;-78
2023/08/24 00:47:14;;;;;;;5.33;1.27;;;;;;;;;;4962767;28;20507;-79
2023/08/24 00:49:40;;;;;;;4.13;1.07;;;;;;;;;;4964140;28;20173;-80
2023/08/24 00:52:06;;;;;;;4.50;1.33;;;;;;;;;;4962436;28;20177;-80
2023/08/24 00:54:32;;;;;;;3.27;1.00;;;;;;;;;;4962939;28;20509;-79
2023/08/24 00:56:58;;;;;;;2.00;0.77;;;;;;;;;;4963877;28;20775;-80
2023/08/24 00:59:24;;;;;;;4.10;1.20;;;;;;;;;;4961772;28;20460;-81
2023/08/24 01:01:51;;;;;;;4.80;0.63;;;;;;;;;;4962811;28;20415;-80
2023/08/24 01:04:18;;;;;;;6.70;1.17;;;;;;;;;;4963710;28;20807;-81
2023/08/24 01:06:44;;;;;;;3.50;1.43;;;;;;;;;;4961046;28;20831;-80
2023/08/24 01:09:11;;;;;;;2.40;0.83;;;;;;;;;;4962755;28;20520;-80
2023/08/24 01:11:54;;;;;;;5.87;1.20;;;;;;;;;;4962270;28;20986;-80
2023/08/24 01:14:31;;;;;;;3.70;1.27;;;;;;;;;;4963896;28;20998;-79
2023/08/24 01:16:59;;;;;;;6.33;1.00;;;;;;;;;;4963340;28;20416;-79
2023/08/24 01:19:35;;;;;;;2.37;0.83;;;;;;;;;;4961948;28;20411;-81
2023/08/24 01:22:02;;;;;;;3.90;1.80;;;;;;;;;;4961800;28;20419;-80
2023/08/24 01:24:37;;;;;;;2.57;0.70;;;;;;;;;;4963263;28;20473;-81
2023/08/24 01:27:04;;;;;;;3.87;1.03;;;;;;;;;;4963482;28;20422;-80
2023/08/24 01:29:30;;;;;;;4.63;1.23;;;;;;;;;;4962579;28;20540;-80
2023/08/24 01:31:56;;;;;;;2.00;1.10;;;;;;;;;;4969538;28;20422;-79
2023/08/24 01:34:22;;;;;;;4.17;0.90;;;;;;;;;;4972630;28;21003;-80
2023/08/24 01:36:48;;;;;;;3.33;0.90;;;;;;;;;;4972848;28;20423;-80
2023/08/24 01:39:20;;;;;;;4.03;1.23;;;;;;;;;;4972754;28;20436;-80
2023/08/24 01:41:47;;;;;;;5.33;1.23;;;;;;;;;;4973008;28;20203;-80
2023/08/24 01:44:15;;;;;;;2.30;0.83;;;;;;;;;;4976522;28;20519;-81
2023/08/24 01:46:43;;;;;;;2.60;1.03;;;;;;;;;;4976183;28;20407;-81
2023/08/24 01:49:10;;;;;;;5.07;1.20;;;;;;;;;;4976521;28;20423;-80
2023/08/24 01:51:36;;;;;;;7.00;1.70;;;;;;;;;;4976390;28;20907;-80
2023/08/24 01:54:02;;;;;;;2.83;1.93;;;;;;;;;;4976306;28;20484;-79
2023/08/24 01:56:28;;;;;;;3.80;1.57;;;;;;;;;;4976307;28;20502;-80
2023/08/24 01:58:54;;;;;;;5.43;1.70;;;;;;;;;;4976129;28;20548;-81
2023/08/24 02:01:20;;;;;;;7.23;1.67;;;;;;;;;;4975998;28;20175;-79
2023/08/24 02:03:45;;;;;;;2.83;1.13;;;;;;;;;;4976179;28;20851;-80
2023/08/24 02:06:12;;;;;;;4.30;1.57;;;;;;;;;;4976102;28;20258;-79
2023/08/24 02:08:38;;;;;;;3.40;1.77;;;;;;;;;;4976181;28;20209;-82
2023/08/24 02:11:04;;;;;;;2.83;1.77;;;;;;;;;;4976044;28;20454;-80
2023/08/24 02:13:30;;;;;;;5.87;1.80;;;;;;;;;;4975941;28;20474;-80
2023/08/24 02:16:05;;;;;;;2.97;1.70;;;;;;;;;;4975721;28;20473;-80
2023/08/24 02:18:32;;;;;;;5.33;1.73;;;;;;;;;;4976125;28;20249;-81
2023/08/24 02:20:58;;;;;;;3.50;1.47;;;;;;;;;;4975896;28;20817;-79
2023/08/24 02:23:24;;;;;;;7.97;2.70;;;;;;;;;;4975865;28;20478;-79
2023/08/24 02:25:50;;;;;;;2.50;1.40;;;;;;;;;;4975937;28;20410;-80
2023/08/24 02:28:15;;;;;;;3.83;0.90;;;;;;;;;;4975898;28;20424;-81
2023/08/24 02:30:41;;;;;;;2.97;1.73;;;;;;;;;;4974197;28;20628;-80
2023/08/24 02:33:07;;;;;;;5.37;1.47;;;;;;;;;;4975700;28;20219;-80
2023/08/24 02:35:33;;;;;;;4.67;1.93;;;;;;;;;;4974474;28;20572;-79
2023/08/24 02:37:59;;;;;;;6.73;1.90;;;;;;;;;;4975709;28;20166;-80
2023/08/24 02:40:25;;;;;;;4.73;2.00;;;;;;;;;;4975538;28;20801;-82
2023/08/24 02:42:51;;;;;;;3.40;1.10;;;;;;;;;;4975652;28;20441;-80
2023/08/24 02:45:17;;;;;;;4.53;1.60;;;;;;;;;;4975190;28;20418;-81
2023/08/24 02:47:43;;;;;;;5.90;1.90;;;;;;;;;;4975545;28;20183;-80
2023/08/24 02:50:09;;;;;;;6.67;1.30;;;;;;;;;;4975485;28;20583;-80
2023/08/24 02:52:35;;;;;;;4.27;1.83;;;;;;;;;;4975242;28;20197;-80
2023/08/24 02:55:01;;;;;;;5.00;2.10;;;;;;;;;;4974722;28;20424;-80
2023/08/24 02:57:26;;;;;;;2.73;1.70;;;;;;;;;;4975171;28;20554;-80
2023/08/24 02:59:52;;;;;;;4.40;1.57;;;;;;;;;;4974854;28;20927;-80
2023/08/24 03:02:18;;;;;;;4.00;1.80;;;;;;;;;;4975122;28;20226;-82
2023/08/24 03:04:44;;;;;;;3.83;1.43;;;;;;;;;;4975080;28;20426;-82
2023/08/24 03:07:10;;;;;;;3.17;1.23;;;;;;;;;;4975153;28;20499;-80
2023/08/24 03:09:36;;;;;;;4.80;2.27;;;;;;;;;;4974982;28;20203;-81
2023/08/24 03:12:02;;;;;;;4.13;1.53;;;;;;;;;;4974938;28;20448;-83
2023/08/24 03:14:28;;;;;;;5.00;1.80;;;;;;;;;;4974651;28;20302;-82
2023/08/24 03:16:54;;;;;;;4.27;1.60;;;;;;;;;;4973650;28;20974;-80
2023/08/24 03:19:20;;;;;;;3.50;2.10;;;;;;;;;;4974850;28;20428;-80
2023/08/24 03:21:46;;;;;;;3.73;2.60;;;;;;;;;;4974773;28;20175;-81
2023/08/24 03:24:12;;;;;;;5.10;2.13;;;;;;;;;;4974760;28;20442;-80
2023/08/24 03:26:38;;;;;;;2.97;1.40;;;;;;;;;;4974397;28;20710;-80
2023/08/24 03:29:04;;;;;;;4.50;2.20;;;;;;;;;;4975649;28;20232;-80
2023/08/24 03:31:30;;;;;;;4.73;2.00;;;;;;;;;;4975394;28;20526;-81
2023/08/24 03:33:56;;;;;;;2.80;1.20;;;;;;;;;;4975745;28;20208;-81
2023/08/24 03:36:22;;;;;;;3.07;1.60;;;;;;;;;;4975370;28;20170;-80
2023/08/24 03:38:48;;;;;;;3.17;2.50;;;;;;;;;;4975694;28;20773;-81
2023/08/24 03:41:13;;;;;;;3.43;2.27;;;;;;;;;;4975671;28;20169;-80
2023/08/24 03:43:39;;;;;;;5.53;2.20;;;;;;;;;;4975724;28;20414;-81
2023/08/24 03:46:05;;;;;;;4.43;2.20;;;;;;;;;;4985036;28;20256;-81
2023/08/24 03:48:32;;;;;;;3.27;1.80;;;;;;;;;;4975639;28;20410;-81
2023/08/24 03:50:58;;;;;;;3.00;1.40;;;;;;;;;;4975440;28;20450;-80
2023/08/24 03:53:25;;;;;;;3.67;1.93;;;;;;;;;;4974052;28;20481;-80
2023/08/24 03:55:51;;;;;;;4.13;1.80;;;;;;;;;;4975426;28;20774;-80
2023/08/24 03:58:17;;;;;;;2.73;1.93;;;;;;;;;;4975118;28;20869;-80
2023/08/24 04:00:44;;;;;;;5.90;1.80;;;;;;;;;;4974914;28;20524;-80
2023/08/24 04:03:10;;;;;;;3.07;2.00;;;;;;;;;;4975234;28;20426;-80
2023/08/24 04:05:36;;;;;;;13.77;4.20;;;;;;;;;;4974386;28;20416;-80
2023/08/24 04:08:02;;;;;;;4.63;2.60;;;;;;;;;;4975198;28;20434;-80
2023/08/24 04:10:28;;;;;;;3.40;1.90;;;;;;;;;;4975182;28;20190;-80
2023/08/24 04:12:54;;;;;;;4.30;1.83;;;;;;;;;;4975006;28;20465;-80
2023/08/24 04:15:20;;;;;;;3.57;2.03;;;;;;;;;;4974684;28;20497;-80
2023/08/24 04:17:47;;;;;;;5.60;2.53;;;;;;;;;;4975010;28;20894;-80
2023/08/24 04:20:13;;;;;;;4.03;2.33;;;;;;;;;;4974908;28;20457;-80
2023/08/24 04:22:39;;;;;;;6.10;2.30;;;;;;;;;;4974930;28;20520;-79
2023/08/24 04:25:05;;;;;;;5.60;3.23;;;;;;;;;;4974794;28;20781;-79
2023/08/24 04:27:32;;;;;;;4.50;2.60;;;;;;;;;;4973909;28;20592;-81
2023/08/24 04:29:58;;;;;;;4.90;2.40;;;;;;;;;;4974470;28;20429;-80
2023/08/24 04:32:24;;;;;;;5.30;3.03;;;;;;;;;;4974625;28;20411;-79
2023/08/24 04:34:50;;;;;;;4.70;2.77;;;;;;;;;;4974727;28;20521;-80
2023/08/24 04:37:16;;;;;;;8.53;3.20;;;;;;;;;;4974644;28;20950;-80
2023/08/24 04:39:42;;;;;;;5.27;2.33;;;;;;;;;;4974529;28;20423;-80
2023/08/24 04:42:08;;;;;;;6.13;2.43;;;;;;;;;;4974641;28;20186;-80
2023/08/24 04:44:34;;;;;;;3.80;2.50;;;;;;;;;;4973880;28;21058;-79
2023/08/24 04:47:00;;;;;;;5.33;2.50;;;;;;;;;;4974425;28;20180;-80
2023/08/24 04:49:26;;;;;;;3.80;1.80;;;;;;;;;;4974493;28;20484;-80
2023/08/24 04:51:52;;;;;;;4.33;2.60;;;;;;;;;;4974513;28;20416;-80
2023/08/24 04:54:18;;;;;;;3.70;2.10;;;;;;;;;;4973211;28;20475;-80
2023/08/24 04:56:44;;;;;;;3.83;1.90;;;;;;;;;;4974350;28;20218;-80
2023/08/24 04:59:13;;;;;;;8.70;2.90;;;;;;;;;;4956639;28;20491;-80
2023/08/24 05:01:38;;;;;;;9.60;2.90;;;;;;;;;;4974159;28;20326;-80
2023/08/24 05:04:04;;;;;;;3.10;2.13;;;;;;;;;;4974215;28;20512;-80
2023/08/24 05:06:30;;;;;;;5.33;2.63;;;;;;;;;;4973798;28;20176;-80
2023/08/24 05:08:56;;;;;;;4.33;2.67;;;;;;;;;;4974202;28;20176;-80
2023/08/24 05:11:26;;;;;;;4.50;2.53;;;;;;;;;;4974240;28;20186;-81
2023/08/24 05:13:52;;;;;;;6.70;3.83;;;;;;;;;;4974135;28;20564;-80
2023/08/24 05:16:18;;;;;;;5.57;3.10;;;;;;;;;;4973768;28;20952;-80
2023/08/24 05:18:44;;;;;;;3.20;1.90;;;;;;;;;;4980068;28;20644;-80
2023/08/24 05:21:10;;;;;;;6.07;2.33;;;;;;;;;;4980428;28;20405;-79
2023/08/24 05:23:36;;;;;;;6.33;3.60;;;;;;;;;;4980470;28;20969;-80
2023/08/24 05:26:02;;;;;;;5.90;3.10;;;;;;;;;;4980434;28;20251;-80
2023/08/24 05:28:29;;;;;;;3.40;1.60;;;;;;;;;;4979248;28;20430;-80
2023/08/24 05:30:55;;;;;;;4.03;2.53;;;;;;;;;;4980162;28;20817;-80
2023/08/24 05:33:21;;;;;;;3.90;2.47;;;;;;;;;;4980381;28;20478;-79
2023/08/24 05:35:48;;;;;;;5.07;2.90;;;;;;;;;;4980473;28;20433;-79
2023/08/24 05:38:14;;;;;;;7.17;3.77;;;;;;;;;;4980427;28;20415;-79
2023/08/24 05:40:42;;;;;;;3.87;2.47;;;;;;;;;;4980033;28;20421;-80
2023/08/24 05:43:08;;;;;;;6.80;2.97;;;;;;;;;;4981178;28;20827;-82
2023/08/24 05:45:34;;;;;;;5.83;2.50;;;;;;;;;;4999533;28;20415;-83
2023/08/24 05:48:00;;;;;;;3.13;2.30;;;;;;;;;;4973826;28;20169;-83
2023/08/24 05:50:26;;;;;;;7.13;2.60;;;;;;;;;;4969714;28;20533;-82
2023/08/24 05:52:52;;;;;;;4.20;2.23;;;;;;;;;;4970582;28;20203;-80
2023/08/24 05:55:18;;;;;;;5.40;2.13;;;;;;;;;;4968953;28;20497;-79
2023/08/24 05:57:44;;;;;;;4.37;2.40;;;;;;;;;;4970072;28;20508;-78
2023/08/24 06:00:10;;;;;;;2.93;1.70;;;;;;;;;;4970223;28;20423;-79
2023/08/24 06:02:36;;;;;;;4.37;1.77;;;;;;;;;;4971628;28;20403;-79
2023/08/24 06:05:03;;;;;;;4.17;1.60;;;;;;;;;;4960828;28;20486;-81
2023/08/24 06:07:29;;;;;;;2.97;1.80;;;;;;;;;;4960870;28;20962;-82
2023/08/24 06:09:54;;;;;;;4.03;1.33;;;;;;;;;;4960849;28;20448;-85
2023/08/24 06:12:20;;;;;;;2.67;1.50;;;;;;;;;;4960781;28;20503;-83
2023/08/24 06:14:46;;;;;;;2.70;1.07;;;;;;;;;;4960342;28;20222;-85
2023/08/24 06:17:12;;;;;;;3.33;1.10;;;;;;;;;;4960732;28;20177;-83
2023/08/24 06:19:38;;;;;;;3.40;1.87;;;;;;;;;;4960760;28;20693;-82
2023/08/24 06:22:04;;;;;;;3.57;0.93;;;;;;;;;;4960788;28;20169;-86
2023/08/24 06:24:30;;;;;;;6.03;1.40;;;;;;;;;;4960682;28;20416;-83
2023/08/24 06:26:56;;;;;;;3.17;1.47;;;;;;;;;;4960662;28;20504;-84
2023/08/24 06:29:22;;;;;;;4.57;1.57;;;;;;;;;;4957487;28;20475;-83
2023/08/24 06:31:48;;;;;;;3.83;0.70;;;;;;;;;;4957631;28;20265;-83
2023/08/24 06:34:14;;;;;;;3.60;1.10;;;;;;;;;;4957548;28;20295;-81
2023/08/24 06:36:40;;;;;;;4.80;1.97;;;;;;;;;;4957575;28;20263;-80
2023/08/24 06:39:06;;;;;;;1.80;0.73;;;;;;;;;;4957518;28;20610;-81
2023/08/24 06:41:35;;;;;;;3.23;0.70;;;;;;;;;;4957468;28;20825;-81
2023/08/24 06:44:01;;;;;;;2.43;0.77;;;;;;;;;;4956996;28;20416;-83
2023/08/24 06:46:27;;;;;;;4.30;1.00;;;;;;;;;;4957196;28;20408;-81
2023/08/24 06:48:53;;;;;;;1.83;0.70;;;;;;;;;;4957302;28;20424;-79
2023/08/24 06:51:19;;;;;;;3.30;1.30;;;;;;;;;;4956090;28;20536;-80
2023/08/24 06:53:46;;;;;;;2.37;0.70;;;;;;;;;;4957161;28;20223;-80
2023/08/24 06:56:12;;;;;;;3.30;0.80;;;;;;;;;;4956097;28;20268;-79
2023/08/24 06:58:38;;;;;;;3.87;0.93;;;;;;;;;;4956952;28;20503;-80
2023/08/24 07:01:06;;;;;;;5.30;0.93;;;;;;;;;;4956790;28;20228;-80
2023/08/24 07:03:35;;;;;;;2.37;0.60;;;;;;;;;;4956975;28;20542;-80
2023/08/24 07:06:00;;;;;;;7.00;1.03;;;;;;;;;;4957055;28;20773;-80
2023/08/24 07:08:26;;;;;;;2.40;0.50;;;;;;;;;;4956737;28;20431;-79
2023/08/24 07:10:52;;;;;;;3.37;0.50;;;;;;;;;;4957009;28;20187;-79
2023/08/24 07:13:18;;;;;;;3.40;0.90;;;;;;;;;;4956920;28;20295;-80
2023/08/24 07:15:45;;;;;;;3.27;0.50;;;;;;;;;;4956537;28;20420;-80
2023/08/24 07:18:11;;;;;;;2.47;1.33;;;;;;;;;;4956869;28;20530;-81
2023/08/24 07:20:37;;;;;;;3.73;0.87;;;;;;;;;;4955527;28;20433;-81
2023/08/24 07:23:03;;;;;;;2.20;0.50;;;;;;;;;;4956706;28;20416;-80
2023/08/24 07:25:29;;;;;;;4.13;0.50;;;;;;;;;;4956581;28;20784;-80
2023/08/24 07:27:59;;;;;;;1.13;0.43;;;;;;;;;;4956679;28;20425;-81
2023/08/24 07:30:28;;;;;;;3.50;0.97;;;;;;;;;;4954973;28;20184;-80
2023/08/24 07:32:54;;;;;;;3.30;0.90;;;;;;;;;;4956460;28;20464;-81
2023/08/24 07:35:20;;;;;;;2.77;0.70;;;;;;;;;;4956523;29;20483;-81
2023/08/24 07:37:47;;;;;;;3.03;0.80;;;;;;;;;;4956359;28;20503;-80
2023/08/24 07:40:14;;;;;;;2.97;0.60;;;;;;;;;;4956266;28;20567;-81
2023/08/24 07:42:43;;;;;;;4.00;0.67;;;;;;;;;;4956331;28;20425;-80
2023/08/24 07:45:09;;;;;;;2.03;0.50;;;;;;;;;;4956269;28;20898;-80
2023/08/24 07:47:35;;;;;;;3.30;0.60;;;;;;;;;;4956260;28;20417;-81
2023/08/24 07:50:01;;;;;;;4.57;1.33;;;;;;;;;;4956155;28;20507;-81
2023/08/24 07:52:28;;;;;;;5.43;1.20;;;;;;;;;;4956240;28;20554;-83
2023/08/24 07:54:55;;;;;;;2.60;0.70;;;;;;;;;;4956127;28;20184;-79
2023/08/24 07:57:21;;;;;;;1.70;0.50;;;;;;;;;;4954518;28;20511;-82
2023/08/24 07:59:47;;;;;;;2.10;0.67;;;;;;;;;;4955834;29;20957;-82
2023/08/24 08:02:15;;;;;;;1.73;0.80;;;;;;;;;;4955969;28;20452;-81
2023/08/24 08:04:41;;;;;;;2.40;0.50;;;;;;;;;;4956000;28;20202;-80
2023/08/24 08:07:10;;;;;;;3.07;0.97;;;;;;;;;;4955881;28;20419;-80
2023/08/24 08:09:36;;;;;;;1.90;0.40;;;;;;;;;;4955895;28;20421;-80
2023/08/24 08:12:03;;;;;;;1.93;0.60;;;;;;;;;;4955801;28;20409;-79
2023/08/24 08:14:32;;;;;;;3.33;0.70;;;;;;;;;;4955368;28;20468;-79
2023/08/24 08:16:58;;;;;;;4.00;0.67;;;;;;;;;;4954567;28;20936;-79
2023/08/24 08:19:26;;;;;;;5.10;0.80;;;;;;;;;;4955745;29;20417;-81
2023/08/24 08:21:52;;;;;;;2.90;1.23;;;;;;;;;;4955610;28;20173;-78
2023/08/24 08:24:18;;;;;;;4.07;1.07;;;;;;;;;;4955613;28;20511;-78
2023/08/24 08:26:44;;;;;;;5.47;1.40;;;;;;;;;;4955507;28;20650;-78
2023/08/24 08:29:10;;;;;;;2.83;1.13;;;;;;;;;;4955173;28;20181;-83
2023/08/24 08:31:36;;;;;;;5.47;1.90;;;;;;;;;;4955571;28;20248;-80
2023/08/24 08:34:04;;;;;;;2.43;0.90;;;;;;;;;;4955414;28;20251;-80
2023/08/24 08:36:32;;;;;;;2.83;0.73;;;;;;;;;;4955470;28;20405;-80
2023/08/24 08:38:58;;;;;;;2.40;0.53;;;;;;;;;;4955281;28;20851;-80
2023/08/24 08:41:25;;;;;;;2.43;0.97;;;;;;;;;;4955274;28;20512;-79
2023/08/24 08:43:51;;;;;;;2.53;0.53;;;;;;;;;;4954935;28;20180;-79
2023/08/24 08:46:17;;;;;;;2.60;0.90;;;;;;;;;;4955380;28;20891;-79
2023/08/24 08:48:45;;;;;;;2.60;1.00;;;;;;;;;;4955290;28;20181;-79
2023/08/24 08:51:13;;;;;;;2.80;1.07;;;;;;;;;;4955101;28;20408;-78
2023/08/24 08:53:38;;;;;;;2.60;1.07;;;;;;;;;;4954653;28;20499;-80
2023/08/24 08:56:05;;;;;;;2.90;1.07;;;;;;;;;;4958198;28;20408;-81
2023/08/24 08:58:32;;;;;;;2.00;0.70;;;;;;;;;;4954601;28;20252;-79
2023/08/24 09:00:59;;;;;;;3.63;1.13;;;;;;;;;;4955156;28;20409;-82
2023/08/24 09:03:26;;;;;;;2.20;0.43;;;;;;;;;;4955005;28;20421;-82
2023/08/24 09:05:52;;;;;;;2.93;1.27;;;;;;;;;;4954833;28;20420;-80
2023/08/24 09:08:18;;;;;;;2.57;0.80;;;;;;;;;;4954799;28;20485;-80
2023/08/24 09:10:45;;;;;;;3.50;0.67;;;;;;;;;;4959207;28;20412;-79
2023/08/24 09:13:11;;;;;;;2.13;0.90;;;;;;;;;;4973130;28;20469;-79
2023/08/24 09:15:36;;;;;;;1.83;0.70;;;;;;;;;;4972813;28;20412;-82
2023/08/24 09:18:04;;;;;;;2.03;0.70;;;;;;;;;;4972954;28;20463;-83
2023/08/24 09:20:30;;;;;;;1.60;0.60;;;;;;;;;;4971939;28;20427;-79
2023/08/24 09:22:57;;;;;;;2.30;0.83;;;;;;;;;;4973146;28;20474;-79
2023/08/24 09:25:23;;;;;;;2.97;0.70;;;;;;;;;;4973037;28;20424;-80
2023/08/24 09:28:03;;;;;;;3.43;1.50;;;;;;;;;;4973143;28;20412;-80
2023/08/24 09:30:35;;;;;;;3.07;0.77;;;;;;;;;;4972755;28;20419;-80
2023/08/24 09:33:04;;;;;;;3.73;0.80;;;;;;;;;;4973008;28;20912;-80
2023/08/24 09:35:30;;;;;;;1.70;0.63;;;;;;;;;;4973057;28;20420;-80
2023/08/24 09:37:56;;;;;;;2.20;0.73;;;;;;;;;;4973776;28;20416;-79
2023/08/24 09:40:26;;;;;;;3.10;1.00;;;;;;;;;;4973626;28;20416;-78
2023/08/24 09:42:52;;;;;;;4.27;1.23;;;;;;;;;;4973216;28;20717;-78
2023/08/24 09:45:18;;;;;;;3.40;0.50;;;;;;;;;;4973438;28;20423;-78
2023/08/24 09:47:51;;;;;;;2.50;0.67;;;;;;;;;;4973565;28;20407;-80
2023/08/24 09:50:17;;;;;;;3.23;0.83;;;;;;;;;;4973923;28;20420;-77
2023/08/24 09:52:43;;;;;;;2.57;0.70;;;;;;;;;;4972598;28;20427;-77
2023/08/24 09:55:10;;;;;;;2.60;0.63;;;;;;;;;;4974496;28;20183;-76
2023/08/24 09:57:39;;;;;;;4.53;0.70;;;;;;;;;;4992942;28;20517;-77
2023/08/24 10:00:14;;;;;;;1.67;0.50;;;;;;;;;;4982571;28;20432;-81
2023/08/24 10:02:48;;;;;;;4.73;1.03;;;;;;;;;;4972637;28;20822;-78
2023/08/24 10:05:20;;;;;;;4.07;0.70;;;;;;;;;;4975063;28;20820;-80
2023/08/24 10:07:46;;;;;;;3.00;1.77;;;;;;;;;;4976235;28;20435;-80
2023/08/24 10:10:13;;;;;;;3.10;1.07;;;;;;;;;;4976228;28;20449;-81
2023/08/24 10:12:42;;;;;;;6.50;1.60;;;;;;;;;;4976291;28;20447;-80
2023/08/24 10:15:08;;;;;;;3.93;1.43;;;;;;;;;;4975930;28;20411;-79
2023/08/24 10:17:35;;;;;;;4.43;1.40;;;;;;;;;;4976152;28;20470;-80
2023/08/24 10:20:04;;;;;;;3.87;1.17;;;;;;;;;;4976210;28;20408;-80
2023/08/24 10:22:31;;;;;;;4.60;1.40;;;;;;;;;;4976502;28;20430;-77
2023/08/24 10:24:57;;;;;;;4.97;1.97;;;;;;;;;;4975808;28;20566;-77
2023/08/24 10:27:26;;;;;;;3.00;1.27;;;;;;;;;;4974906;28;20841;-77
2023/08/24 10:29:52;;;;;;;2.50;1.30;;;;;;;;;;4974661;28;20425;-77
2023/08/24 10:32:19;;;;;;;3.00;1.30;;;;;;;;;;4974883;28;20408;-77
2023/08/24 10:34:45;;;;;;;4.47;1.10;;;;;;;;;;4974233;28;20172;-78
2023/08/24 10:37:12;;;;;;;4.00;2.57;;;;;;;;;;4974632;28;20909;-78
2023/08/24 10:39:43;;;;;;;3.50;1.90;;;;;;;;;;4975374;28;20510;-78
2023/08/24 10:42:13;;;;;;;2.60;2.30;;;;;;;;;;4976384;28;20468;-77
2023/08/24 10:44:40;;;;;;;3.23;1.23;;;;;;;;;;4975982;28;20498;-77
2023/08/24 10:47:12;;;;;;;4.30;1.90;;;;;;;;;;4976359;28;20447;-78
2023/08/24 10:49:39;;;;;;;2.60;2.03;;;;;;;;;;4976592;28;20514;-78
2023/08/24 10:52:31;;;;;;;5.40;2.03;;;;;;;;;;4976613;28;20400;-78
2023/08/24 10:54:57;;;;;;;2.90;2.07;;;;;;;;;;4976647;28;20874;-78
2023/08/24 10:57:23;;;;;;;3.50;1.50;;;;;;;;;;4975087;28;20511;-77
2023/08/24 11:00:21;;;;;;;3.03;1.67;;;;;;;;;;4976102;28;20414;-78
2023/08/24 11:02:49;;;;;;;5.10;2.13;;;;;;;;;;4968527;28;20199;-78
2023/08/24 11:05:16;;;;;;;2.80;1.77;;;;;;;;;;4975114;28;20455;-77
2023/08/24 11:07:49;;;;;;;6.03;1.87;;;;;;;;;;4976359;28;20827;-78
2023/08/24 11:10:15;;;;;;;3.00;1.47;;;;;;;;;;4976338;28;20416;-79
2023/08/24 11:13:00;;;;;;;3.23;1.43;;;;;;;;;;4976210;28;20407;-78
2023/08/24 11:15:32;;;;;;;3.30;1.80;;;;;;;;;;4975677;28;20431;-78
2023/08/24 11:18:17;;;;;;;2.87;2.00;;;;;;;;;;4976130;28;20422;-77
2023/08/24 11:20:47;;;;;;;3.17;1.87;;;;;;;;;;4976095;28;20420;-78
2023/08/24 11:23:16;;;;;;;1.60;1.30;;;;;;;;;;4975897;28;20467;-78
2023/08/24 11:25:42;;;;;;;4.30;1.73;;;;;;;;;;4975968;28;20447;-77
2023/08/24 11:28:08;;;;;;;3.30;1.67;;;;;;;;;;4975603;28;20415;-78
2023/08/24 11:30:34;;;;;;;4.27;1.87;;;;;;;;;;4975884;28;20924;-78
2023/08/24 11:33:01;;;;;;;5.27;1.80;;;;;;;;;;4975856;28;20176;-78
2023/08/24 11:35:27;;;;;;;3.60;1.73;;;;;;;;;;4975878;28;20909;-78
2023/08/24 11:37:53;;;;;;;3.50;1.23;;;;;;;;;;4975804;28;20419;-78
2023/08/24 11:40:20;;;;;;;1.23;1.10;;;;;;;;;;4975798;28;20427;-78
2023/08/24 11:42:46;;;;;;;2.27;1.33;;;;;;;;;;4975703;28;20411;-80
2023/08/24 11:45:13;;;;;;;2.60;1.60;;;;;;;;;;4975268;28;20893;-82
2023/08/24 11:47:40;;;;;;;2.37;1.57;;;;;;;;;;4975660;28;20404;-81
2023/08/24 11:50:06;;;;;;;1.80;1.07;;;;;;;;;;4975474;28;20408;-80
2023/08/24 11:52:35;;;;;;;3.27;1.30;;;;;;;;;;4975550;28;20876;-80
2023/08/24 11:55:01;;;;;;;5.87;1.17;;;;;;;;;;4975431;28;20420;-78
2023/08/24 11:57:27;;;;;;;4.90;1.20;;;;;;;;;;4975227;28;20804;-81
2023/08/24 11:59:54;;;;;;;3.23;1.63;;;;;;;;;;4975063;28;20420;-79
2023/08/24 12:02:20;;;;;;;3.63;1.50;;;;;;;;;;4975304;28;20474;-80
2023/08/24 12:04:49;;;;;;;1.90;1.30;;;;;;;;;;4975253;28;20478;-82
2023/08/24 12:07:15;;;;;;;2.50;1.13;;;;;;;;;;4975239;28;20444;-80
2023/08/24 12:09:41;;;;;;;3.43;1.30;;;;;;;;;;4973975;28;20435;-78
2023/08/24 12:12:17;;;;;;;3.03;1.30;;;;;;;;;;4975152;28;20450;-80
2023/08/24 12:14:44;;;;;;;3.03;1.40;;;;;;;;;;4974746;28;20415;-79
2023/08/24 12:17:10;;;;;;;3.43;1.47;;;;;;;;;;4975051;28;20412;-80
2023/08/24 12:19:36;;;;;;;3.10;0.93;;;;;;;;;;4975060;28;20785;-81
2023/08/24 12:22:02;;;;;;;3.93;1.80;;;;;;;;;;4974917;28;20408;-77
2023/08/24 12:24:28;;;;;;;2.90;1.60;;;;;;;;;;4974840;28;20208;-78
2023/08/24 12:26:59;;;;;;;4.90;1.50;;;;;;;;;;4974033;28;20466;-79
2023/08/24 12:29:25;;;;;;;2.07;0.97;;;;;;;;;;4973310;28;20188;-79
2023/08/24 12:31:51;;;;;;;2.47;1.17;;;;;;;;;;4974777;28;20955;-78
2023/08/24 12:34:17;;;;;;;1.93;0.83;;;;;;;;;;4974732;28;20259;-81
2023/08/24 12:36:43;;;;;;;3.50;1.40;;;;;;;;;;4974790;28;20913;-79
2023/08/24 12:39:12;;;;;;;2.20;0.80;;;;;;;;;;4974672;28;20641;-77
2023/08/24 12:41:38;;;;;;;4.00;1.93;;;;;;;;;;4974670;28;20446;-76
2023/08/24 12:44:05;;;;;;;3.17;1.23;;;;;;;;;;4965640;28;20479;-78
2023/08/24 12:46:31;;;;;;;2.87;1.40;;;;;;;;;;4971190;28;20422;-79
2023/08/24 12:48:57;;;;;;;2.70;1.40;;;;;;;;;;4966993;28;20827;-80
2023/08/24 12:51:26;;;;;;;1.67;1.10;;;;;;;;;;4974332;28;20414;-78
2023/08/24 12:53:52;;;;;;;3.53;1.70;;;;;;;;;;4974360;28;20176;-78
2023/08/24 12:56:18;;;;;;;4.43;1.80;;;;;;;;;;4974220;28;20470;-78
2023/08/24 12:58:44;;;;;;;4.70;2.10;;;;;;;;;;4973767;28;20302;-78
2023/08/24 13:01:14;;;;;;;1.50;1.07;;;;;;;;;;4974324;28;20183;-78
2023/08/24 13:03:43;;;;;;;2.60;1.17;;;;;;;;;;4974152;28;20200;-78
2023/08/24 13:06:09;;;;;;;1.93;1.00;;;;;;;;;;4973994;28;20514;-78
2023/08/24 13:08:35;;;;;;;2.23;1.20;;;;;;;;;;4974273;28;20507;-78
2023/08/24 13:11:01;;;;;;;2.30;1.07;;;;;;;;;;4974138;28;20595;-80
2023/08/24 13:13:27;;;;;;;3.50;1.40;;;;;;;;;;4973817;28;20396;-79
2023/08/24 13:15:53;;;;;;;2.60;0.70;;;;;;;;;;4974105;28;20180;-78
2023/08/24 13:18:19;;;;;;;5.27;1.40;;;;;;;;;;4972829;28;20184;-78
2023/08/24 13:20:45;;;;;;;3.80;1.10;;;;;;;;;;4974130;28;20593;-78
2023/08/24 13:23:11;;;;;;;2.97;1.40;;;;;;;;;;4974039;28;20238;-78
2023/08/24 13:25:37;;;;;;;3.17;1.23;;;;;;;;;;4974133;28;20652;-78
2023/08/24 13:28:02;;;;;;;5.20;1.00;;;;;;;;;;4973647;28;20550;-78
2023/08/24 13:30:28;;;;;;;1.50;0.80;;;;;;;;;;4974052;28;20172;-78
2023/08/24 13:32:54;;;;;;;3.00;1.00;;;;;;;;;;4973996;28;20908;-79
2023/08/24 13:35:20;;;;;;;3.93;1.00;;;;;;;;;;4974037;28;20199;-78
2023/08/24 13:37:50;;;;;;;1.97;0.70;;;;;;;;;;4972888;28;20415;-78
2023/08/24 13:40:16;;;;;;;1.70;1.20;;;;;;;;;;4977802;28;20176;-79
2023/08/24 13:42:42;;;;;;;4.20;1.80;;;;;;;;;;4977475;28;20783;-78
2023/08/24 13:45:11;;;;;;;3.33;1.40;;;;;;;;;;4976545;28;20184;-78
2023/08/24 13:47:37;;;;;;;4.60;1.77;;;;;;;;;;4977691;28;20259;-78
2023/08/24 13:50:03;;;;;;;2.60;1.50;;;;;;;;;;4977570;28;20575;-79
2023/08/24 13:52:29;;;;;;;2.30;1.23;;;;;;;;;;4976447;28;20633;-78
2023/08/24 13:54:55;;;;;;;1.83;1.00;;;;;;;;;;4977618;28;20419;-77
2023/08/24 13:57:21;;;;;;;2.33;1.23;;;;;;;;;;4977406;28;20675;-79
2023/08/24 13:59:47;;;;;;;2.67;0.87;;;;;;;;;;4977123;28;20194;-78
2023/08/24 14:02:13;;;;;;;3.83;1.43;;;;;;;;;;4977394;28;20176;-79
2023/08/24 14:04:39;;;;;;;6.13;1.70;;;;;;;;;;4977339;28;20270;-78
2023/08/24 14:07:05;;;;;;;5.67;1.43;;;;;;;;;;4977365;28;20708;-77
2023/08/24 14:09:32;;;;;;;3.40;1.37;;;;;;;;;;4977828;28;20420;-77
2023/08/24 14:11:58;;;;;;;1.97;1.20;;;;;;;;;;4977359;28;20840;-78
2023/08/24 14:14:24;;;;;;;4.07;1.73;;;;;;;;;;4975219;28;20459;-78
2023/08/24 14:16:56;;;;;;;2.93;1.10;;;;;;;;;;4977192;28;20183;-78
2023/08/24 14:19:23;;;;;;;2.03;1.37;;;;;;;;;;4977161;28;20219;-77
2023/08/24 14:21:49;;;;;;;4.20;1.70;;;;;;;;;;4977082;28;20416;-77
2023/08/24 14:24:14;;;;;;;5.40;1.90;;;;;;;;;;4976841;28;20478;-77
2023/08/24 14:26:45;;;;;;;3.37;1.90;;;;;;;;;;4976991;28;20183;-77
2023/08/24 14:29:11;;;;;;;3.53;0.97;;;;;;;;;;4976716;28;20184;-78
2023/08/24 14:31:37;;;;;;;1.70;1.30;;;;;;;;;;4976976;28;20411;-77
2023/08/24 14:34:03;;;;;;;3.63;1.43;;;;;;;;;;4976215;28;20422;-77
2023/08/24 14:36:29;;;;;;;3.63;1.07;;;;;;;;;;4976756;28;20419;-77
2023/08/24 14:38:55;;;;;;;2.20;0.97;;;;;;;;;;4976728;28;20419;-77
2023/08/24 14:41:24;;;;;;;2.90;1.40;;;;;;;;;;4976802;28;20510;-77